sensor_id;sensor_type;location;lat;lon;timestamp;P1;durP1;ratioP1;P2;durP2;ratioP2
4424;SDS011;2225;53.568;13.266;2023-07-22T00:01:35;8.80;;;4.07;;
4424;SDS011;2225;53.568;13.266;2023-07-22T00:04:03;11.70;;;4.70;;
4424;SDS011;2225;53.568;13.266;2023-07-22T00:06:30;10.20;;;4.73;;
4424;SDS011;2225;53.568;13.266;2023-07-22T00:08:57;9.10;;;4.40;;
4424;SDS011;2225;53.568;13.266;2023-07-22T00:11:24;9.53;;;4.43;;
4424;SDS011;2225;53.568;13.266;2023-07-22T00:13:51;10.10;;;4.53;;
4424;SDS011;2225;53.568;13.266;2023-07-22T00:16:18;14.90;;;4.97;;
4424;SDS011;2225;53.568;13.266;2023-07-22T00:18:45;9.07;;;4.27;;
4424;SDS011;2225;53.568;13.266;2023-07-22T00:21:12;12.27;;;3.93;;
4424;SDS011;2225;53.568;13.266;2023-07-22T00:23:39;9.57;;;4.03;;
4424;SDS011;2225;53.568;13.266;2023-07-22T00:26:06;8.50;;;4.23;;
4424;SDS011;2225;53.568;13.266;2023-07-22T00:28:33;9.60;;;4.30;;
4424;SDS011;2225;53.568;13.266;2023-07-22T00:31:02;8.80;;;3.60;;
4424;SDS011;2225;53.568;13.266;2023-07-22T00:33:29;11.60;;;4.10;;
4424;SDS011;2225;53.568;13.266;2023-07-22T00:35:56;11.40;;;4.60;;
4424;SDS011;2225;53.568;13.266;2023-07-22T00:38:23;8.37;;;3.90;;
4424;SDS011;2225;53.568;13.266;2023-07-22T00:40:50;12.47;;;4.90;;
4424;SDS011;2225;53.568;13.266;2023-07-22T00:43:17;8.37;;;3.40;;
4424;SDS011;2225;53.568;13.266;2023-07-22T00:45:44;10.40;;;4.70;;
4424;SDS011;2225;53.568;13.266;2023-07-22T00:48:11;17.50;;;4.23;;
4424;SDS011;2225;53.568;13.266;2023-07-22T00:50:40;10.80;;;4.03;;
4424;SDS011;2225;53.568;13.266;2023-07-22T00:53:07;16.90;;;4.10;;
4424;SDS011;2225;53.568;13.266;2023-07-22T00:55:34;8.10;;;3.70;;
4424;SDS011;2225;53.568;13.266;2023-07-22T00:58:03;11.00;;;3.50;;
4424;SDS011;2225;53.568;13.266;2023-07-22T01:00:30;11.80;;;3.53;;
4424;SDS011;2225;53.568;13.266;2023-07-22T01:02:58;12.73;;;3.70;;
4424;SDS011;2225;53.568;13.266;2023-07-22T01:05:26;8.43;;;3.33;;
4424;SDS011;2225;53.568;13.266;2023-07-22T01:07:53;10.67;;;3.57;;
4424;SDS011;2225;53.568;13.266;2023-07-22T01:10:21;9.50;;;4.00;;
4424;SDS011;2225;53.568;13.266;2023-07-22T01:12:48;11.43;;;3.80;;
4424;SDS011;2225;53.568;13.266;2023-07-22T01:15:15;8.83;;;3.83;;
4424;SDS011;2225;53.568;13.266;2023-07-22T01:17:42;11.27;;;3.63;;
4424;SDS011;2225;53.568;13.266;2023-07-22T01:20:10;8.53;;;3.47;;
4424;SDS011;2225;53.568;13.266;2023-07-22T01:22:39;16.23;;;3.90;;
4424;SDS011;2225;53.568;13.266;2023-07-22T01:25:09;12.60;;;4.53;;
4424;SDS011;2225;53.568;13.266;2023-07-22T01:27:38;8.73;;;3.90;;
4424;SDS011;2225;53.568;13.266;2023-07-22T01:30:05;9.20;;;3.90;;
4424;SDS011;2225;53.568;13.266;2023-07-22T01:32:36;12.50;;;3.80;;
4424;SDS011;2225;53.568;13.266;2023-07-22T01:35:03;10.93;;;4.60;;
4424;SDS011;2225;53.568;13.266;2023-07-22T01:37:30;9.80;;;4.13;;
4424;SDS011;2225;53.568;13.266;2023-07-22T01:39:58;9.80;;;3.63;;
4424;SDS011;2225;53.568;13.266;2023-07-22T01:42:25;8.77;;;3.70;;
4424;SDS011;2225;53.568;13.266;2023-07-22T01:44:52;9.63;;;4.00;;
4424;SDS011;2225;53.568;13.266;2023-07-22T01:47:19;9.53;;;3.83;;
4424;SDS011;2225;53.568;13.266;2023-07-22T01:49:46;8.10;;;3.67;;
4424;SDS011;2225;53.568;13.266;2023-07-22T01:52:13;9.03;;;3.80;;
4424;SDS011;2225;53.568;13.266;2023-07-22T01:54:40;14.73;;;4.70;;
4424;SDS011;2225;53.568;13.266;2023-07-22T01:57:07;11.70;;;4.13;;
4424;SDS011;2225;53.568;13.266;2023-07-22T01:59:34;13.93;;;4.73;;
4424;SDS011;2225;53.568;13.266;2023-07-22T02:02:01;11.40;;;3.70;;
4424;SDS011;2225;53.568;13.266;2023-07-22T02:04:28;13.60;;;4.83;;
4424;SDS011;2225;53.568;13.266;2023-07-22T02:06:55;11.67;;;4.40;;
4424;SDS011;2225;53.568;13.266;2023-07-22T02:09:22;10.83;;;4.37;;
4424;SDS011;2225;53.568;13.266;2023-07-22T02:11:49;9.37;;;3.63;;
4424;SDS011;2225;53.568;13.266;2023-07-22T02:14:16;8.87;;;3.60;;
4424;SDS011;2225;53.568;13.266;2023-07-22T02:16:43;16.10;;;4.67;;
4424;SDS011;2225;53.568;13.266;2023-07-22T02:19:10;12.03;;;3.70;;
4424;SDS011;2225;53.568;13.266;2023-07-22T02:21:40;8.77;;;3.77;;
4424;SDS011;2225;53.568;13.266;2023-07-22T02:24:07;24.00;;;4.33;;
4424;SDS011;2225;53.568;13.266;2023-07-22T02:26:35;11.90;;;3.97;;
4424;SDS011;2225;53.568;13.266;2023-07-22T02:29:02;11.10;;;3.60;;
4424;SDS011;2225;53.568;13.266;2023-07-22T02:31:29;10.40;;;3.97;;
4424;SDS011;2225;53.568;13.266;2023-07-22T02:33:56;8.83;;;3.33;;
4424;SDS011;2225;53.568;13.266;2023-07-22T02:36:23;16.67;;;3.13;;
4424;SDS011;2225;53.568;13.266;2023-07-22T02:38:51;11.10;;;2.77;;
4424;SDS011;2225;53.568;13.266;2023-07-22T02:41:18;9.10;;;2.40;;
4424;SDS011;2225;53.568;13.266;2023-07-22T02:43:45;9.57;;;3.00;;
4424;SDS011;2225;53.568;13.266;2023-07-22T02:46:12;6.60;;;2.50;;
4424;SDS011;2225;53.568;13.266;2023-07-22T02:48:39;13.80;;;2.97;;
4424;SDS011;2225;53.568;13.266;2023-07-22T02:51:07;11.97;;;2.30;;
4424;SDS011;2225;53.568;13.266;2023-07-22T02:53:36;8.03;;;2.47;;
4424;SDS011;2225;53.568;13.266;2023-07-22T02:56:03;9.20;;;2.97;;
4424;SDS011;2225;53.568;13.266;2023-07-22T02:58:33;8.87;;;2.83;;
4424;SDS011;2225;53.568;13.266;2023-07-22T03:01:00;9.00;;;2.97;;
4424;SDS011;2225;53.568;13.266;2023-07-22T03:03:30;7.13;;;2.83;;
4424;SDS011;2225;53.568;13.266;2023-07-22T03:06:01;8.17;;;2.97;;
4424;SDS011;2225;53.568;13.266;2023-07-22T03:08:29;12.43;;;2.60;;
4424;SDS011;2225;53.568;13.266;2023-07-22T03:10:56;6.87;;;2.40;;
4424;SDS011;2225;53.568;13.266;2023-07-22T03:13:23;9.10;;;3.10;;
4424;SDS011;2225;53.568;13.266;2023-07-22T03:15:50;8.70;;;2.97;;
4424;SDS011;2225;53.568;13.266;2023-07-22T03:18:18;8.50;;;2.70;;
4424;SDS011;2225;53.568;13.266;2023-07-22T03:20:46;8.17;;;2.83;;
4424;SDS011;2225;53.568;13.266;2023-07-22T03:23:13;9.23;;;2.33;;
4424;SDS011;2225;53.568;13.266;2023-07-22T03:25:40;9.57;;;2.80;;
4424;SDS011;2225;53.568;13.266;2023-07-22T03:28:07;7.57;;;3.00;;
4424;SDS011;2225;53.568;13.266;2023-07-22T03:30:34;8.00;;;2.67;;
4424;SDS011;2225;53.568;13.266;2023-07-22T03:33:01;9.27;;;3.63;;
4424;SDS011;2225;53.568;13.266;2023-07-22T03:35:28;8.93;;;3.07;;
4424;SDS011;2225;53.568;13.266;2023-07-22T03:37:55;9.40;;;3.67;;
4424;SDS011;2225;53.568;13.266;2023-07-22T03:40:22;10.97;;;3.20;;
4424;SDS011;2225;53.568;13.266;2023-07-22T03:42:54;8.50;;;3.43;;
4424;SDS011;2225;53.568;13.266;2023-07-22T03:45:23;10.57;;;3.30;;
4424;SDS011;2225;53.568;13.266;2023-07-22T03:47:51;13.10;;;4.53;;
4424;SDS011;2225;53.568;13.266;2023-07-22T03:50:23;9.67;;;3.90;;
4424;SDS011;2225;53.568;13.266;2023-07-22T03:52:50;9.93;;;4.30;;
4424;SDS011;2225;53.568;13.266;2023-07-22T03:55:17;8.83;;;4.03;;
4424;SDS011;2225;53.568;13.266;2023-07-22T03:57:46;10.50;;;4.73;;
4424;SDS011;2225;53.568;13.266;2023-07-22T04:00:13;10.83;;;5.10;;
4424;SDS011;2225;53.568;13.266;2023-07-22T04:02:40;9.70;;;4.80;;
4424;SDS011;2225;53.568;13.266;2023-07-22T04:05:08;11.27;;;4.73;;
4424;SDS011;2225;53.568;13.266;2023-07-22T04:07:37;10.53;;;4.60;;
4424;SDS011;2225;53.568;13.266;2023-07-22T04:10:05;10.37;;;4.80;;
4424;SDS011;2225;53.568;13.266;2023-07-22T04:12:34;9.83;;;4.93;;
4424;SDS011;2225;53.568;13.266;2023-07-22T04:15:00;12.10;;;5.80;;
4424;SDS011;2225;53.568;13.266;2023-07-22T04:17:28;14.00;;;6.07;;
4424;SDS011;2225;53.568;13.266;2023-07-22T04:19:55;13.10;;;5.93;;
4424;SDS011;2225;53.568;13.266;2023-07-22T04:22:22;12.90;;;6.10;;
4424;SDS011;2225;53.568;13.266;2023-07-22T04:24:50;14.60;;;5.83;;
4424;SDS011;2225;53.568;13.266;2023-07-22T04:27:19;11.57;;;5.47;;
4424;SDS011;2225;53.568;13.266;2023-07-22T04:29:46;13.67;;;5.70;;
4424;SDS011;2225;53.568;13.266;2023-07-22T04:32:13;11.13;;;5.67;;
4424;SDS011;2225;53.568;13.266;2023-07-22T04:34:40;13.07;;;5.97;;
4424;SDS011;2225;53.568;13.266;2023-07-22T04:37:07;11.83;;;5.70;;
4424;SDS011;2225;53.568;13.266;2023-07-22T04:39:34;13.63;;;5.83;;
4424;SDS011;2225;53.568;13.266;2023-07-22T04:42:01;16.03;;;7.03;;
4424;SDS011;2225;53.568;13.266;2023-07-22T04:44:28;13.47;;;6.03;;
4424;SDS011;2225;53.568;13.266;2023-07-22T04:46:55;14.37;;;6.80;;
4424;SDS011;2225;53.568;13.266;2023-07-22T04:49:22;10.83;;;5.60;;
4424;SDS011;2225;53.568;13.266;2023-07-22T04:51:49;12.50;;;6.70;;
4424;SDS011;2225;53.568;13.266;2023-07-22T04:54:17;13.33;;;7.30;;
4424;SDS011;2225;53.568;13.266;2023-07-22T04:56:44;16.67;;;7.47;;
4424;SDS011;2225;53.568;13.266;2023-07-22T04:59:12;16.90;;;7.00;;
4424;SDS011;2225;53.568;13.266;2023-07-22T05:01:41;12.80;;;6.73;;
4424;SDS011;2225;53.568;13.266;2023-07-22T05:04:08;16.60;;;6.10;;
4424;SDS011;2225;53.568;13.266;2023-07-22T05:06:35;11.70;;;5.93;;
4424;SDS011;2225;53.568;13.266;2023-07-22T05:09:02;12.60;;;6.50;;
4424;SDS011;2225;53.568;13.266;2023-07-22T05:11:30;13.73;;;7.10;;
4424;SDS011;2225;53.568;13.266;2023-07-22T05:13:57;12.20;;;5.83;;
4424;SDS011;2225;53.568;13.266;2023-07-22T05:16:24;16.33;;;7.40;;
4424;SDS011;2225;53.568;13.266;2023-07-22T05:18:51;13.27;;;6.03;;
4424;SDS011;2225;53.568;13.266;2023-07-22T05:21:18;14.13;;;5.70;;
4424;SDS011;2225;53.568;13.266;2023-07-22T05:23:45;18.87;;;6.93;;
4424;SDS011;2225;53.568;13.266;2023-07-22T05:26:12;19.40;;;6.20;;
4424;SDS011;2225;53.568;13.266;2023-07-22T05:28:39;20.70;;;6.50;;
4424;SDS011;2225;53.568;13.266;2023-07-22T05:31:06;13.13;;;5.97;;
4424;SDS011;2225;53.568;13.266;2023-07-22T05:33:33;12.90;;;5.77;;
4424;SDS011;2225;53.568;13.266;2023-07-22T05:36:00;17.70;;;7.47;;
4424;SDS011;2225;53.568;13.266;2023-07-22T05:38:27;16.23;;;7.00;;
4424;SDS011;2225;53.568;13.266;2023-07-22T05:40:54;15.87;;;6.67;;
4424;SDS011;2225;53.568;13.266;2023-07-22T05:43:21;19.40;;;6.50;;
4424;SDS011;2225;53.568;13.266;2023-07-22T05:45:48;14.10;;;6.30;;
4424;SDS011;2225;53.568;13.266;2023-07-22T05:48:15;13.97;;;6.00;;
4424;SDS011;2225;53.568;13.266;2023-07-22T05:50:42;15.37;;;6.53;;
4424;SDS011;2225;53.568;13.266;2023-07-22T05:53:09;12.30;;;5.93;;
4424;SDS011;2225;53.568;13.266;2023-07-22T05:55:37;16.57;;;6.40;;
4424;SDS011;2225;53.568;13.266;2023-07-22T05:58:04;13.00;;;6.20;;
4424;SDS011;2225;53.568;13.266;2023-07-22T06:00:34;12.90;;;5.60;;
4424;SDS011;2225;53.568;13.266;2023-07-22T06:03:01;13.67;;;6.17;;
4424;SDS011;2225;53.568;13.266;2023-07-22T06:05:29;17.47;;;5.90;;
4424;SDS011;2225;53.568;13.266;2023-07-22T06:07:56;11.60;;;5.70;;
4424;SDS011;2225;53.568;13.266;2023-07-22T06:10:23;13.10;;;5.40;;
4424;SDS011;2225;53.568;13.266;2023-07-22T06:12:51;15.33;;;5.70;;
4424;SDS011;2225;53.568;13.266;2023-07-22T06:15:18;12.37;;;5.17;;
4424;SDS011;2225;53.568;13.266;2023-07-22T06:17:45;14.57;;;5.80;;
4424;SDS011;2225;53.568;13.266;2023-07-22T06:20:12;22.17;;;5.97;;
4424;SDS011;2225;53.568;13.266;2023-07-22T06:22:39;14.83;;;5.10;;
4424;SDS011;2225;53.568;13.266;2023-07-22T06:25:07;12.00;;;5.80;;
4424;SDS011;2225;53.568;13.266;2023-07-22T06:27:34;11.50;;;5.30;;
4424;SDS011;2225;53.568;13.266;2023-07-22T06:30:04;9.60;;;5.17;;
4424;SDS011;2225;53.568;13.266;2023-07-22T06:32:32;11.97;;;5.00;;
4424;SDS011;2225;53.568;13.266;2023-07-22T06:35:00;14.57;;;5.27;;
4424;SDS011;2225;53.568;13.266;2023-07-22T06:37:27;15.53;;;5.23;;
4424;SDS011;2225;53.568;13.266;2023-07-22T06:39:55;14.40;;;5.60;;
4424;SDS011;2225;53.568;13.266;2023-07-22T06:42:21;14.60;;;6.10;;
4424;SDS011;2225;53.568;13.266;2023-07-22T06:44:48;21.43;;;5.83;;
4424;SDS011;2225;53.568;13.266;2023-07-22T06:47:16;12.03;;;5.20;;
4424;SDS011;2225;53.568;13.266;2023-07-22T06:49:43;13.77;;;4.87;;
4424;SDS011;2225;53.568;13.266;2023-07-22T06:52:12;12.50;;;5.60;;
4424;SDS011;2225;53.568;13.266;2023-07-22T06:54:40;12.40;;;5.67;;
4424;SDS011;2225;53.568;13.266;2023-07-22T06:57:07;10.47;;;4.80;;
4424;SDS011;2225;53.568;13.266;2023-07-22T06:59:34;16.63;;;5.70;;
4424;SDS011;2225;53.568;13.266;2023-07-22T07:02:02;13.57;;;5.20;;
4424;SDS011;2225;53.568;13.266;2023-07-22T07:04:31;15.40;;;6.50;;
4424;SDS011;2225;53.568;13.266;2023-07-22T07:06:58;14.03;;;6.30;;
4424;SDS011;2225;53.568;13.266;2023-07-22T07:09:26;17.57;;;6.13;;
4424;SDS011;2225;53.568;13.266;2023-07-22T07:11:53;17.03;;;5.50;;
4424;SDS011;2225;53.568;13.266;2023-07-22T07:14:23;17.00;;;7.33;;
4424;SDS011;2225;53.568;13.266;2023-07-22T07:16:51;16.80;;;6.57;;
4424;SDS011;2225;53.568;13.266;2023-07-22T07:19:17;13.67;;;6.00;;
4424;SDS011;2225;53.568;13.266;2023-07-22T07:21:45;15.10;;;6.70;;
4424;SDS011;2225;53.568;13.266;2023-07-22T07:24:12;11.73;;;5.83;;
4424;SDS011;2225;53.568;13.266;2023-07-22T07:26:39;12.63;;;6.53;;
4424;SDS011;2225;53.568;13.266;2023-07-22T07:29:06;13.97;;;6.23;;
4424;SDS011;2225;53.568;13.266;2023-07-22T07:31:33;13.30;;;5.57;;
4424;SDS011;2225;53.568;13.266;2023-07-22T07:34:00;12.80;;;5.53;;
4424;SDS011;2225;53.568;13.266;2023-07-22T07:36:27;14.77;;;6.40;;
4424;SDS011;2225;53.568;13.266;2023-07-22T07:38:55;14.47;;;6.60;;
4424;SDS011;2225;53.568;13.266;2023-07-22T07:41:22;15.13;;;6.80;;
4424;SDS011;2225;53.568;13.266;2023-07-22T07:43:49;13.17;;;6.90;;
4424;SDS011;2225;53.568;13.266;2023-07-22T07:46:20;12.70;;;5.50;;
4424;SDS011;2225;53.568;13.266;2023-07-22T07:48:50;12.00;;;5.43;;
4424;SDS011;2225;53.568;13.266;2023-07-22T07:51:19;13.90;;;5.27;;
4424;SDS011;2225;53.568;13.266;2023-07-22T07:53:49;13.93;;;5.90;;
4424;SDS011;2225;53.568;13.266;2023-07-22T07:56:17;13.50;;;5.93;;
4424;SDS011;2225;53.568;13.266;2023-07-22T07:58:45;18.73;;;5.40;;
4424;SDS011;2225;53.568;13.266;2023-07-22T08:01:14;10.03;;;5.10;;
4424;SDS011;2225;53.568;13.266;2023-07-22T08:03:41;14.90;;;5.90;;
4424;SDS011;2225;53.568;13.266;2023-07-22T08:06:09;14.50;;;5.47;;
4424;SDS011;2225;53.568;13.266;2023-07-22T08:08:37;11.97;;;5.43;;
4424;SDS011;2225;53.568;13.266;2023-07-22T08:11:06;11.87;;;4.80;;
4424;SDS011;2225;53.568;13.266;2023-07-22T08:13:39;12.33;;;4.60;;
4424;SDS011;2225;53.568;13.266;2023-07-22T08:16:08;13.80;;;5.43;;
4424;SDS011;2225;53.568;13.266;2023-07-22T08:18:36;11.30;;;4.90;;
4424;SDS011;2225;53.568;13.266;2023-07-22T08:21:04;12.60;;;4.57;;
4424;SDS011;2225;53.568;13.266;2023-07-22T08:23:33;13.60;;;5.70;;
4424;SDS011;2225;53.568;13.266;2023-07-22T08:26:01;12.43;;;5.57;;
4424;SDS011;2225;53.568;13.266;2023-07-22T08:28:31;12.60;;;4.60;;
4424;SDS011;2225;53.568;13.266;2023-07-22T08:30:58;13.27;;;4.27;;
4424;SDS011;2225;53.568;13.266;2023-07-22T08:33:27;10.97;;;4.10;;
4424;SDS011;2225;53.568;13.266;2023-07-22T08:36:06;7.87;;;3.43;;
4424;SDS011;2225;53.568;13.266;2023-07-22T08:38:34;14.30;;;3.40;;
4424;SDS011;2225;53.568;13.266;2023-07-22T08:41:01;8.60;;;3.83;;
4424;SDS011;2225;53.568;13.266;2023-07-22T08:43:28;9.87;;;4.10;;
4424;SDS011;2225;53.568;13.266;2023-07-22T08:45:57;16.33;;;4.60;;
4424;SDS011;2225;53.568;13.266;2023-07-22T08:48:29;10.77;;;3.33;;
4424;SDS011;2225;53.568;13.266;2023-07-22T08:51:02;11.07;;;3.97;;
4424;SDS011;2225;53.568;13.266;2023-07-22T08:53:32;15.60;;;4.33;;
4424;SDS011;2225;53.568;13.266;2023-07-22T08:56:00;11.60;;;3.93;;
4424;SDS011;2225;53.568;13.266;2023-07-22T08:58:27;8.43;;;3.90;;
4424;SDS011;2225;53.568;13.266;2023-07-22T09:00:56;13.07;;;3.37;;
4424;SDS011;2225;53.568;13.266;2023-07-22T09:03:24;8.60;;;3.33;;
4424;SDS011;2225;53.568;13.266;2023-07-22T09:05:51;9.77;;;3.10;;
4424;SDS011;2225;53.568;13.266;2023-07-22T09:08:19;9.27;;;3.40;;
4424;SDS011;2225;53.568;13.266;2023-07-22T09:10:47;9.30;;;3.30;;
4424;SDS011;2225;53.568;13.266;2023-07-22T09:13:14;8.70;;;3.37;;
4424;SDS011;2225;53.568;13.266;2023-07-22T09:15:42;8.10;;;3.43;;
4424;SDS011;2225;53.568;13.266;2023-07-22T09:18:09;8.73;;;3.73;;
4424;SDS011;2225;53.568;13.266;2023-07-22T09:20:36;13.10;;;4.70;;
4424;SDS011;2225;53.568;13.266;2023-07-22T09:23:03;9.27;;;3.87;;
4424;SDS011;2225;53.568;13.266;2023-07-22T09:25:40;11.07;;;3.90;;
4424;SDS011;2225;53.568;13.266;2023-07-22T09:28:08;14.67;;;3.90;;
4424;SDS011;2225;53.568;13.266;2023-07-22T09:30:37;9.07;;;4.47;;
4424;SDS011;2225;53.568;13.266;2023-07-22T09:33:06;13.83;;;3.93;;
4424;SDS011;2225;53.568;13.266;2023-07-22T09:35:47;9.33;;;3.50;;
4424;SDS011;2225;53.568;13.266;2023-07-22T09:38:22;7.77;;;2.93;;
4424;SDS011;2225;53.568;13.266;2023-07-22T09:40:51;8.27;;;2.87;;
4424;SDS011;2225;53.568;13.266;2023-07-22T09:43:18;9.53;;;3.10;;
4424;SDS011;2225;53.568;13.266;2023-07-22T09:45:48;15.10;;;3.10;;
4424;SDS011;2225;53.568;13.266;2023-07-22T09:48:16;9.17;;;3.40;;
4424;SDS011;2225;53.568;13.266;2023-07-22T09:50:43;12.07;;;3.50;;
4424;SDS011;2225;53.568;13.266;2023-07-22T09:53:14;7.33;;;2.83;;
4424;SDS011;2225;53.568;13.266;2023-07-22T09:55:42;17.43;;;2.93;;
4424;SDS011;2225;53.568;13.266;2023-07-22T09:58:10;9.70;;;3.40;;
4424;SDS011;2225;53.568;13.266;2023-07-22T10:00:41;8.50;;;2.93;;
4424;SDS011;2225;53.568;13.266;2023-07-22T10:03:14;8.70;;;3.70;;
4424;SDS011;2225;53.568;13.266;2023-07-22T10:05:45;14.13;;;3.53;;
4424;SDS011;2225;53.568;13.266;2023-07-22T10:08:12;6.80;;;2.80;;
4424;SDS011;2225;53.568;13.266;2023-07-22T10:10:44;9.13;;;3.50;;
4424;SDS011;2225;53.568;13.266;2023-07-22T10:13:11;8.63;;;3.00;;
4424;SDS011;2225;53.568;13.266;2023-07-22T10:15:38;14.50;;;3.50;;
4424;SDS011;2225;53.568;13.266;2023-07-22T10:18:06;12.70;;;4.10;;
4424;SDS011;2225;53.568;13.266;2023-07-22T10:20:33;8.60;;;3.50;;
4424;SDS011;2225;53.568;13.266;2023-07-22T10:23:03;7.37;;;3.00;;
4424;SDS011;2225;53.568;13.266;2023-07-22T10:25:30;12.43;;;2.93;;
4424;SDS011;2225;53.568;13.266;2023-07-22T10:27:57;8.17;;;2.73;;
4424;SDS011;2225;53.568;13.266;2023-07-22T10:30:24;8.70;;;3.20;;
4424;SDS011;2225;53.568;13.266;2023-07-22T10:32:52;10.30;;;3.03;;
4424;SDS011;2225;53.568;13.266;2023-07-22T10:37:56;7.40;;;2.60;;
4424;SDS011;2225;53.568;13.266;2023-07-22T10:40:50;7.93;;;2.50;;
4424;SDS011;2225;53.568;13.266;2023-07-22T10:45:56;7.10;;;2.80;;
4424;SDS011;2225;53.568;13.266;2023-07-22T10:48:26;8.93;;;2.33;;
4424;SDS011;2225;53.568;13.266;2023-07-22T10:51:11;6.90;;;2.40;;
4424;SDS011;2225;53.568;13.266;2023-07-22T10:53:41;8.03;;;2.67;;
4424;SDS011;2225;53.568;13.266;2023-07-22T10:56:12;7.50;;;2.20;;
4424;SDS011;2225;53.568;13.266;2023-07-22T11:07:31;6.60;;;2.30;;
4424;SDS011;2225;53.568;13.266;2023-07-22T11:10:10;8.13;;;2.43;;
4424;SDS011;2225;53.568;13.266;2023-07-22T11:12:40;7.37;;;2.20;;
4424;SDS011;2225;53.568;13.266;2023-07-22T11:15:16;6.53;;;2.00;;
4424;SDS011;2225;53.568;13.266;2023-07-22T11:17:44;6.93;;;2.20;;
4424;SDS011;2225;53.568;13.266;2023-07-22T11:20:11;9.03;;;2.03;;
4424;SDS011;2225;53.568;13.266;2023-07-22T11:22:39;7.43;;;2.30;;
4424;SDS011;2225;53.568;13.266;2023-07-22T11:25:07;6.40;;;2.23;;
4424;SDS011;2225;53.568;13.266;2023-07-22T11:27:35;5.83;;;1.80;;
4424;SDS011;2225;53.568;13.266;2023-07-22T11:30:02;5.83;;;1.90;;
4424;SDS011;2225;53.568;13.266;2023-07-22T11:32:31;9.20;;;2.27;;
4424;SDS011;2225;53.568;13.266;2023-07-22T11:34:59;5.90;;;1.70;;
4424;SDS011;2225;53.568;13.266;2023-07-22T11:37:27;5.50;;;1.60;;
4424;SDS011;2225;53.568;13.266;2023-07-22T11:39:59;6.50;;;2.07;;
4424;SDS011;2225;53.568;13.266;2023-07-22T11:42:29;8.20;;;2.10;;
4424;SDS011;2225;53.568;13.266;2023-07-22T11:44:56;7.87;;;1.90;;
4424;SDS011;2225;53.568;13.266;2023-07-22T11:47:28;6.23;;;1.50;;
4424;SDS011;2225;53.568;13.266;2023-07-22T11:49:57;5.47;;;1.50;;
4424;SDS011;2225;53.568;13.266;2023-07-22T11:52:25;6.57;;;1.60;;
4424;SDS011;2225;53.568;13.266;2023-07-22T11:54:52;5.90;;;1.53;;
4424;SDS011;2225;53.568;13.266;2023-07-22T11:57:22;5.50;;;1.70;;
4424;SDS011;2225;53.568;13.266;2023-07-22T11:59:51;7.60;;;1.63;;
4424;SDS011;2225;53.568;13.266;2023-07-22T12:02:21;5.00;;;1.30;;
4424;SDS011;2225;53.568;13.266;2023-07-22T12:04:51;5.83;;;1.53;;
4424;SDS011;2225;53.568;13.266;2023-07-22T12:09:55;12.40;;;1.50;;
4424;SDS011;2225;53.568;13.266;2023-07-22T12:12:34;7.90;;;1.80;;
4424;SDS011;2225;53.568;13.266;2023-07-22T12:15:09;5.70;;;1.33;;
4424;SDS011;2225;53.568;13.266;2023-07-22T12:17:51;11.87;;;1.50;;
4424;SDS011;2225;53.568;13.266;2023-07-22T12:20:28;6.60;;;1.63;;
4424;SDS011;2225;53.568;13.266;2023-07-22T12:22:58;4.90;;;1.30;;
4424;SDS011;2225;53.568;13.266;2023-07-22T12:25:25;4.57;;;1.13;;
4424;SDS011;2225;53.568;13.266;2023-07-22T12:27:52;5.30;;;1.47;;
4424;SDS011;2225;53.568;13.266;2023-07-22T12:30:19;5.47;;;1.40;;
4424;SDS011;2225;53.568;13.266;2023-07-22T12:32:47;8.70;;;2.00;;
4424;SDS011;2225;53.568;13.266;2023-07-22T12:35:15;6.27;;;1.47;;
4424;SDS011;2225;53.568;13.266;2023-07-22T12:37:42;5.60;;;1.77;;
4424;SDS011;2225;53.568;13.266;2023-07-22T12:40:09;6.77;;;1.53;;
4424;SDS011;2225;53.568;13.266;2023-07-22T12:42:39;5.10;;;1.30;;
4424;SDS011;2225;53.568;13.266;2023-07-22T12:45:07;7.03;;;1.80;;
4424;SDS011;2225;53.568;13.266;2023-07-22T12:47:34;6.00;;;1.67;;
4424;SDS011;2225;53.568;13.266;2023-07-22T12:50:02;5.20;;;1.50;;
4424;SDS011;2225;53.568;13.266;2023-07-22T12:52:30;5.07;;;1.50;;
4424;SDS011;2225;53.568;13.266;2023-07-22T12:54:57;7.80;;;1.87;;
4424;SDS011;2225;53.568;13.266;2023-07-22T12:57:24;6.00;;;1.60;;
4424;SDS011;2225;53.568;13.266;2023-07-22T12:59:51;5.47;;;1.70;;
4424;SDS011;2225;53.568;13.266;2023-07-22T13:02:18;6.20;;;1.87;;
4424;SDS011;2225;53.568;13.266;2023-07-22T13:04:45;7.07;;;1.90;;
4424;SDS011;2225;53.568;13.266;2023-07-22T13:07:12;5.07;;;1.30;;
4424;SDS011;2225;53.568;13.266;2023-07-22T13:09:39;5.93;;;1.63;;
4424;SDS011;2225;53.568;13.266;2023-07-22T13:12:08;5.53;;;1.53;;
4424;SDS011;2225;53.568;13.266;2023-07-22T13:14:35;7.00;;;2.03;;
4424;SDS011;2225;53.568;13.266;2023-07-22T13:17:05;7.20;;;1.90;;
4424;SDS011;2225;53.568;13.266;2023-07-22T13:19:33;8.67;;;1.87;;
4424;SDS011;2225;53.568;13.266;2023-07-22T13:22:00;8.10;;;2.10;;
4424;SDS011;2225;53.568;13.266;2023-07-22T13:24:27;6.10;;;1.90;;
4424;SDS011;2225;53.568;13.266;2023-07-22T13:26:55;6.27;;;1.73;;
4424;SDS011;2225;53.568;13.266;2023-07-22T13:29:22;5.20;;;1.57;;
4424;SDS011;2225;53.568;13.266;2023-07-22T13:31:49;6.13;;;1.80;;
4424;SDS011;2225;53.568;13.266;2023-07-22T13:34:15;4.97;;;1.37;;
4424;SDS011;2225;53.568;13.266;2023-07-22T13:36:42;6.40;;;1.83;;
4424;SDS011;2225;53.568;13.266;2023-07-22T13:39:09;5.93;;;1.80;;
4424;SDS011;2225;53.568;13.266;2023-07-22T13:41:36;5.47;;;1.60;;
4424;SDS011;2225;53.568;13.266;2023-07-22T13:44:04;8.20;;;1.73;;
4424;SDS011;2225;53.568;13.266;2023-07-22T13:46:31;6.20;;;1.90;;
4424;SDS011;2225;53.568;13.266;2023-07-22T13:48:58;6.27;;;1.57;;
4424;SDS011;2225;53.568;13.266;2023-07-22T13:51:25;5.17;;;1.50;;
4424;SDS011;2225;53.568;13.266;2023-07-22T13:53:52;5.43;;;1.50;;
4424;SDS011;2225;53.568;13.266;2023-07-22T13:56:21;6.03;;;1.50;;
4424;SDS011;2225;53.568;13.266;2023-07-22T13:58:48;5.10;;;1.63;;
4424;SDS011;2225;53.568;13.266;2023-07-22T14:01:15;8.47;;;2.00;;
4424;SDS011;2225;53.568;13.266;2023-07-22T14:03:42;5.70;;;1.87;;
4424;SDS011;2225;53.568;13.266;2023-07-22T14:06:09;21.53;;;1.70;;
4424;SDS011;2225;53.568;13.266;2023-07-22T14:08:36;5.70;;;1.63;;
4424;SDS011;2225;53.568;13.266;2023-07-22T14:11:03;5.97;;;1.97;;
4424;SDS011;2225;53.568;13.266;2023-07-22T14:13:30;9.60;;;1.73;;
4424;SDS011;2225;53.568;13.266;2023-07-22T14:15:57;7.30;;;1.90;;
4424;SDS011;2225;53.568;13.266;2023-07-22T14:18:44;5.23;;;1.47;;
4424;SDS011;2225;53.568;13.266;2023-07-22T14:21:11;6.07;;;1.70;;
4424;SDS011;2225;53.568;13.266;2023-07-22T14:23:38;6.93;;;2.13;;
4424;SDS011;2225;53.568;13.266;2023-07-22T14:26:05;7.03;;;1.67;;
4424;SDS011;2225;53.568;13.266;2023-07-22T14:28:32;5.50;;;1.53;;
4424;SDS011;2225;53.568;13.266;2023-07-22T14:30:59;6.60;;;2.13;;
4424;SDS011;2225;53.568;13.266;2023-07-22T14:33:26;8.53;;;2.17;;
4424;SDS011;2225;53.568;13.266;2023-07-22T14:35:53;5.70;;;1.70;;
4424;SDS011;2225;53.568;13.266;2023-07-22T14:38:20;8.03;;;1.57;;
4424;SDS011;2225;53.568;13.266;2023-07-22T14:40:46;6.00;;;1.80;;
4424;SDS011;2225;53.568;13.266;2023-07-22T14:43:14;6.33;;;1.50;;
4424;SDS011;2225;53.568;13.266;2023-07-22T14:45:40;5.93;;;1.70;;
4424;SDS011;2225;53.568;13.266;2023-07-22T14:48:07;5.90;;;1.90;;
4424;SDS011;2225;53.568;13.266;2023-07-22T14:50:34;6.80;;;1.87;;
4424;SDS011;2225;53.568;13.266;2023-07-22T14:53:01;8.10;;;2.00;;
4424;SDS011;2225;53.568;13.266;2023-07-22T14:55:29;5.70;;;1.73;;
4424;SDS011;2225;53.568;13.266;2023-07-22T14:57:56;6.97;;;1.87;;
4424;SDS011;2225;53.568;13.266;2023-07-22T15:00:23;6.20;;;1.80;;
4424;SDS011;2225;53.568;13.266;2023-07-22T15:02:50;6.17;;;1.90;;
4424;SDS011;2225;53.568;13.266;2023-07-22T15:05:17;7.63;;;1.93;;
4424;SDS011;2225;53.568;13.266;2023-07-22T15:07:44;7.40;;;2.37;;
4424;SDS011;2225;53.568;13.266;2023-07-22T15:10:11;5.57;;;1.87;;
4424;SDS011;2225;53.568;13.266;2023-07-22T15:12:38;8.97;;;1.80;;
4424;SDS011;2225;53.568;13.266;2023-07-22T15:15:05;5.10;;;1.73;;
4424;SDS011;2225;53.568;13.266;2023-07-22T15:17:33;6.10;;;2.77;;